createdAt,value
2017-02-19T00:00:05.259Z,0
2017-02-19T00:01:05.236Z,0
2017-02-19T00:02:05.225Z,0
2017-02-19T00:03:05.195Z,0
2017-02-19T00:04:05.199Z,0
2017-02-19T00:05:05.148Z,0
2017-02-19T00:06:05.134Z,0
2017-02-19T00:07:05.110Z,0
2017-02-19T00:08:05.082Z,0
2017-02-19T00:09:05.070Z,0
2017-02-19T00:10:05.109Z,0
2017-02-19T00:11:05.021Z,0
2017-02-19T00:12:04.607Z,0
2017-02-19T00:13:04.994Z,0
2017-02-19T00:14:04.561Z,0
2017-02-19T00:15:04.944Z,0
2017-02-19T00:16:04.534Z,0
2017-02-19T00:17:04.887Z,0
2017-02-19T00:18:04.891Z,0
2017-02-19T00:19:04.858Z,0
2017-02-19T00:20:04.444Z,0
2017-02-19T00:21:04.827Z,0
2017-02-19T00:22:04.781Z,0
2017-02-19T00:23:04.772Z,0
2017-02-19T00:24:04.812Z,0
2017-02-19T00:25:04.456Z,0
2017-02-19T00:26:04.754Z,0
2017-02-19T00:27:04.691Z,0
2017-02-19T00:28:04.654Z,0
2017-02-19T00:29:04.629Z,0
2017-02-19T00:30:04.640Z,0
2017-02-19T00:31:04.601Z,0
2017-02-19T00:32:04.581Z,0
2017-02-19T00:33:04.568Z,0
2017-02-19T00:34:04.725Z,0
2017-02-19T00:35:04.506Z,0
2017-02-19T00:36:04.499Z,0
2017-02-19T00:37:04.485Z,0
2017-02-19T00:38:04.437Z,0
2017-02-19T00:39:04.432Z,0
2017-02-19T00:40:03.997Z,0
2017-02-19T00:41:04.422Z,0
2017-02-19T00:42:04.400Z,0
2017-02-19T00:43:04.389Z,0
2017-02-19T00:44:03.915Z,0
2017-02-19T00:45:04.291Z,0
2017-02-19T00:46:04.289Z,0
2017-02-19T00:47:03.907Z,0
2017-02-19T00:48:04.242Z,0
2017-02-19T00:49:04.203Z,0
2017-02-19T00:50:04.194Z,0
2017-02-19T00:51:04.175Z,0
2017-02-19T00:52:04.143Z,0
2017-02-19T00:53:03.716Z,0
2017-02-19T00:54:04.120Z,0
2017-02-19T00:55:04.082Z,0
2017-02-19T00:56:04.051Z,0
2017-02-19T00:57:04.092Z,0
2017-02-19T00:58:03.605Z,0
2017-02-19T00:59:03.986Z,0
2017-02-19T01:00:03.573Z,0
2017-02-19T01:01:03.937Z,0
2017-02-19T01:02:03.944Z,0
2017-02-19T01:03:03.497Z,0
2017-02-19T01:04:03.478Z,0
2017-02-19T01:05:03.466Z,0
2017-02-19T01:06:03.848Z,0
2017-02-19T01:07:03.807Z,0
2017-02-19T01:08:03.797Z,0
2017-02-19T01:09:03.781Z,0
2017-02-19T01:10:03.742Z,0
2017-02-19T01:11:03.746Z,0
2017-02-19T01:12:03.719Z,0
2017-02-19T01:13:03.689Z,0
2017-02-19T01:14:03.677Z,0
2017-02-19T01:15:03.642Z,0
2017-02-19T01:16:03.648Z,0
2017-02-19T01:17:03.591Z,0
2017-02-19T01:18:03.194Z,0
2017-02-19T01:19:03.538Z,0
2017-02-19T01:20:03.144Z,0
2017-02-19T01:21:03.557Z,0
2017-02-19T01:22:03.474Z,0
2017-02-19T01:23:03.471Z,0
2017-02-19T01:24:03.442Z,0
2017-02-19T01:25:03.446Z,0
2017-02-19T01:26:03.389Z,0
2017-02-19T01:27:03.032Z,0
2017-02-19T01:28:03.370Z,0
2017-02-19T01:29:03.349Z,0
2017-02-19T01:30:03.308Z,0
2017-02-19T01:31:03.283Z,0
2017-02-19T01:32:03.277Z,0
2017-02-19T01:33:03.272Z,0
2017-02-19T01:34:03.229Z,0
2017-02-19T01:35:03.198Z,0
2017-02-19T01:36:03.195Z,0
2017-02-19T01:37:03.167Z,0
2017-02-19T01:38:03.134Z,0
2017-02-19T01:39:03.121Z,0
2017-02-19T01:40:03.095Z,0
2017-02-19T01:41:02.683Z,0
2017-02-19T01:42:03.065Z,0
2017-02-19T01:43:03.030Z,0
2017-02-19T01:44:03.001Z,0
2017-02-19T01:45:02.984Z,0
2017-02-19T01:46:02.973Z,0
2017-02-19T01:47:02.929Z,0
2017-02-19T01:48:02.936Z,0
2017-02-19T01:49:02.914Z,0
2017-02-19T01:50:02.882Z,0
2017-02-19T01:51:02.890Z,0
2017-02-19T01:52:02.824Z,0
2017-02-19T01:53:02.812Z,0
2017-02-19T01:54:02.783Z,0
2017-02-19T01:55:02.760Z,0
2017-02-19T01:56:02.758Z,0
2017-02-19T01:57:02.320Z,0
2017-02-19T01:58:02.310Z,0
2017-02-19T01:59:02.691Z,0
2017-02-19T02:00:02.663Z,0
2017-02-19T02:01:02.653Z,0
2017-02-19T02:02:02.607Z,0
2017-02-19T02:03:02.592Z,0
2017-02-19T02:04:02.573Z,0
2017-02-19T02:05:02.556Z,0
2017-02-19T02:06:02.540Z,0
2017-02-19T02:07:02.504Z,0
2017-02-19T02:08:02.481Z,0
2017-02-19T02:09:02.466Z,0
2017-02-19T02:10:02.446Z,0
2017-02-19T02:11:02.432Z,0
2017-02-19T02:12:02.404Z,0
2017-02-19T02:13:02.366Z,0
2017-02-19T02:14:02.397Z,0
2017-02-19T02:15:02.337Z,0
2017-02-19T02:16:02.322Z,0
2017-02-19T02:17:02.305Z,0
2017-02-19T02:18:02.280Z,0
2017-02-19T02:19:02.244Z,0
2017-02-19T02:20:02.238Z,0
2017-02-19T02:21:02.212Z,0
2017-02-19T02:22:02.192Z,0
2017-02-19T02:23:02.165Z,0
2017-02-19T02:24:02.133Z,0
2017-02-19T02:25:02.126Z,0
2017-02-19T02:26:02.101Z,0
2017-02-19T02:27:01.681Z,0
2017-02-19T02:28:02.053Z,0
2017-02-19T02:29:02.059Z,0
2017-02-19T02:30:01.616Z,0
2017-02-19T02:31:02.000Z,0
2017-02-19T02:32:01.970Z,0
2017-02-19T02:33:01.961Z,0
2017-02-19T02:34:02.131Z,0
2017-02-19T02:35:01.910Z,0
2017-02-19T02:36:01.897Z,0
2017-02-19T02:37:01.866Z,0
2017-02-19T02:38:01.834Z,0
2017-02-19T02:39:01.809Z,0
2017-02-19T02:40:01.826Z,0
2017-02-19T02:41:01.780Z,0
2017-02-19T02:42:01.767Z,0
2017-02-19T02:43:01.727Z,0
2017-02-19T02:44:01.713Z,0
2017-02-19T02:45:01.701Z,0
2017-02-19T02:46:01.267Z,0
2017-02-19T02:47:01.661Z,0
2017-02-19T02:48:01.628Z,0
2017-02-19T02:49:01.662Z,0
2017-02-19T02:50:01.589Z,0
2017-02-19T02:51:01.556Z,0
2017-02-19T02:52:01.553Z,0
2017-02-19T02:53:01.520Z,0
2017-02-19T02:54:01.508Z,0
2017-02-19T02:55:01.475Z,0
2017-02-19T02:56:01.065Z,0
2017-02-19T02:57:01.037Z,0
2017-02-19T02:58:01.420Z,0
2017-02-19T02:59:01.384Z,0
2017-02-19T03:00:01.385Z,0
2017-02-19T03:01:01.346Z,0
2017-02-19T03:02:00.554Z,0
2017-02-19T03:03:01.309Z,0
2017-02-19T03:04:01.310Z,0
2017-02-19T03:05:01.275Z,0
2017-02-19T03:06:01.249Z,0
2017-02-19T03:07:00.827Z,0
2017-02-19T03:08:01.202Z,0
2017-02-19T03:09:01.227Z,0
2017-02-19T03:10:01.156Z,0
2017-02-19T03:11:00.756Z,0
2017-02-19T03:12:01.107Z,0
2017-02-19T03:13:01.095Z,0
2017-02-19T03:14:01.089Z,0
2017-02-19T03:15:01.043Z,0
2017-02-19T03:16:01.021Z,0
2017-02-19T03:17:01.018Z,0
2017-02-19T03:18:00.996Z,0
2017-02-19T03:19:00.967Z,0
2017-02-19T03:20:00.980Z,0
2017-02-19T03:21:00.937Z,0
2017-02-19T03:22:00.905Z,0
2017-02-19T03:23:00.898Z,0
2017-02-19T03:24:00.854Z,0
2017-02-19T03:25:00.436Z,0
2017-02-19T03:26:00.822Z,0
2017-02-19T03:27:00.838Z,0
2017-02-19T03:28:00.772Z,0
2017-02-19T03:29:00.352Z,0
2017-02-19T03:30:00.732Z,0
2017-02-19T03:31:00.725Z,0
2017-02-19T03:32:00.309Z,0
2017-02-19T03:33:00.275Z,0
2017-02-19T03:34:00.248Z,0
2017-02-19T03:35:00.621Z,0
2017-02-19T03:36:00.615Z,0
2017-02-19T03:37:00.591Z,0
2017-02-19T03:38:00.584Z,0
2017-02-19T03:39:00.147Z,0
2017-02-19T03:40:00.516Z,0
2017-02-19T03:41:00.502Z,0
2017-02-19T03:42:00.478Z,0
2017-02-19T03:43:00.099Z,0
2017-02-19T03:44:00.064Z,0
2017-02-19T03:45:00.422Z,0
2017-02-19T03:46:00.015Z,0
2017-02-19T03:46:59.975Z,0
2017-02-19T03:48:00.356Z,0
2017-02-19T03:49:00.346Z,0
2017-02-19T03:49:59.916Z,0
2017-02-19T03:51:00.304Z,0
2017-02-19T03:52:00.261Z,0
2017-02-19T03:53:00.262Z,0
2017-02-19T03:54:00.244Z,0
2017-02-19T03:55:00.258Z,0
2017-02-19T03:56:00.189Z,0
2017-02-19T03:56:59.778Z,0
2017-02-19T03:58:00.168Z,0
2017-02-19T03:59:00.165Z,0
2017-02-19T03:59:59.319Z,0
2017-02-19T04:01:00.083Z,0
2017-02-19T04:02:00.070Z,0
2017-02-19T04:03:00.046Z,0
2017-02-19T04:04:00.039Z,0
2017-02-19T04:05:00.003Z,0
2017-02-19T04:05:59.985Z,0
2017-02-19T04:06:59.967Z,0
2017-02-19T04:07:59.938Z,0
2017-02-19T04:08:59.518Z,0
2017-02-19T04:09:59.892Z,0
2017-02-19T04:10:59.481Z,0
2017-02-19T04:11:59.856Z,0
2017-02-19T04:12:59.838Z,0
2017-02-19T04:13:59.858Z,0
2017-02-19T04:14:59.809Z,0
2017-02-19T04:15:59.769Z,0
2017-02-19T04:16:59.756Z,0
2017-02-19T04:17:59.737Z,0
2017-02-19T04:18:59.350Z,0
2017-02-19T04:19:59.699Z,0
2017-02-19T04:20:59.676Z,0
2017-02-19T04:21:59.675Z,0
2017-02-19T04:22:59.258Z,0
2017-02-19T04:23:59.611Z,0
2017-02-19T04:24:59.211Z,0
2017-02-19T04:25:59.647Z,0
2017-02-19T04:26:59.166Z,0
2017-02-19T04:27:59.536Z,0
2017-02-19T04:28:59.120Z,0
2017-02-19T04:29:59.490Z,0
2017-02-19T04:30:59.472Z,0
2017-02-19T04:31:59.454Z,0
2017-02-19T04:32:59.448Z,0
2017-02-19T04:33:59.654Z,0
2017-02-19T04:34:59.388Z,0
2017-02-19T04:35:59.373Z,0
2017-02-19T04:36:59.339Z,0
2017-02-19T04:37:59.319Z,0
2017-02-19T04:38:59.321Z,0
2017-02-19T04:39:59.278Z,0
2017-02-19T04:40:59.324Z,0
2017-02-19T04:41:59.242Z,0
2017-02-19T04:42:59.218Z,0
2017-02-19T04:43:59.206Z,0
2017-02-19T04:44:59.174Z,0
2017-02-19T04:45:58.794Z,0
2017-02-19T04:46:59.162Z,0
2017-02-19T04:47:58.703Z,0
2017-02-19T04:48:58.700Z,0
2017-02-19T04:49:59.104Z,0
2017-02-19T04:50:59.061Z,0
2017-02-19T04:51:59.027Z,0
2017-02-19T04:52:59.005Z,0
2017-02-19T04:53:58.977Z,0
2017-02-19T04:54:58.963Z,0
2017-02-19T04:55:58.953Z,0
2017-02-19T04:56:58.524Z,0
2017-02-19T04:57:58.572Z,0
2017-02-19T04:58:58.493Z,0
2017-02-19T04:59:58.466Z,0
2017-02-19T05:00:58.835Z,0
2017-02-19T05:01:58.818Z,0
2017-02-19T05:02:58.809Z,0
2017-02-19T05:03:58.772Z,0
2017-02-19T05:04:58.375Z,0
2017-02-19T05:05:58.735Z,0
2017-02-19T05:06:58.712Z,0
2017-02-19T05:07:58.695Z,0
2017-02-19T05:08:58.683Z,0
2017-02-19T05:09:58.648Z,0
2017-02-19T05:10:58.633Z,0
2017-02-19T05:11:58.210Z,0
2017-02-19T05:12:58.585Z,0
2017-02-19T05:13:58.561Z,0
2017-02-19T05:14:58.553Z,0
2017-02-19T05:15:58.531Z,0
2017-02-19T05:16:58.519Z,0
2017-02-19T05:17:58.492Z,0
2017-02-19T05:18:58.494Z,0
2017-02-19T05:19:58.453Z,0
2017-02-19T05:20:58.420Z,0
2017-02-19T05:21:58.412Z,0
2017-02-19T05:22:58.421Z,0
2017-02-19T05:23:58.374Z,0
2017-02-19T05:24:58.345Z,0
2017-02-19T05:25:58.325Z,0
2017-02-19T05:26:58.312Z,0
2017-02-19T05:27:58.290Z,0
2017-02-19T05:28:58.278Z,0
2017-02-19T05:29:57.851Z,0
2017-02-19T05:30:58.212Z,0
2017-02-19T05:31:58.207Z,0
2017-02-19T05:32:58.192Z,0
2017-02-19T05:33:58.159Z,0
2017-02-19T05:34:58.133Z,0
2017-02-19T05:35:58.138Z,0
2017-02-19T05:36:58.091Z,0
2017-02-19T05:37:57.755Z,0
2017-02-19T05:38:58.056Z,0
2017-02-19T05:39:58.047Z,0
2017-02-19T05:40:58.024Z,0
2017-02-19T05:41:58.008Z,0
2017-02-19T05:42:57.993Z,0
2017-02-19T05:43:57.986Z,0
2017-02-19T05:44:57.931Z,0
2017-02-19T05:45:57.936Z,0
2017-02-19T05:46:57.898Z,0
2017-02-19T05:47:57.881Z,0
2017-02-19T05:48:57.846Z,0
2017-02-19T05:49:57.428Z,0
2017-02-19T05:50:57.440Z,0
2017-02-19T05:51:57.830Z,0
2017-02-19T05:52:57.782Z,0
2017-02-19T05:53:57.755Z,0
2017-02-19T05:54:57.351Z,0
2017-02-19T05:55:57.704Z,0
2017-02-19T05:56:57.313Z,0
2017-02-19T05:57:57.680Z,0
2017-02-19T05:58:57.694Z,0
2017-02-19T05:59:57.249Z,0
2017-02-19T06:00:57.607Z,0
2017-02-19T06:01:57.649Z,0
2017-02-19T06:02:57.565Z,0
2017-02-19T06:03:57.535Z,0
2017-02-19T06:04:57.540Z,0
2017-02-19T06:05:56.703Z,4
2017-02-19T06:06:57.484Z,0
2017-02-19T06:07:57.467Z,0
2017-02-19T06:08:57.453Z,4
2017-02-19T06:09:56.227Z,0
2017-02-19T06:10:57.011Z,4
2017-02-19T06:11:57.378Z,4
2017-02-19T06:12:57.351Z,4
2017-02-19T06:13:57.335Z,8
2017-02-19T06:14:57.331Z,8
2017-02-19T06:15:57.305Z,8
2017-02-19T06:16:57.291Z,12
2017-02-19T06:17:56.855Z,12
2017-02-19T06:18:57.231Z,12
2017-02-19T06:19:56.877Z,16
2017-02-19T06:20:57.192Z,20
2017-02-19T06:21:56.764Z,24
2017-02-19T06:22:57.149Z,32
2017-02-19T06:23:57.143Z,36
2017-02-19T06:24:57.121Z,40
2017-02-19T06:25:57.083Z,44
2017-02-19T06:26:57.065Z,52
2017-02-19T06:27:57.048Z,60
2017-02-19T06:28:57.026Z,68
2017-02-19T06:29:57.007Z,76
2017-02-19T06:30:56.606Z,84
2017-02-19T06:31:56.962Z,92
2017-02-19T06:32:56.944Z,100
2017-02-19T06:33:57.347Z,116
2017-02-19T06:34:56.898Z,120
2017-02-19T06:35:56.908Z,132
2017-02-19T06:36:56.865Z,144
2017-02-19T06:37:56.846Z,156
2017-02-19T06:38:56.843Z,172
2017-02-19T06:39:56.800Z,180
2017-02-19T06:40:56.782Z,192
2017-02-19T06:41:56.371Z,200
2017-02-19T06:42:56.740Z,212
2017-02-19T06:43:56.717Z,220
2017-02-19T06:44:56.690Z,228
2017-02-19T06:45:56.685Z,248
2017-02-19T06:46:56.268Z,260
2017-02-19T06:47:56.643Z,264
2017-02-19T06:48:56.621Z,268
2017-02-19T06:49:56.632Z,276
2017-02-19T06:50:56.178Z,288
2017-02-19T06:51:56.559Z,308
2017-02-19T06:52:56.586Z,340
2017-02-19T06:53:56.503Z,380
2017-02-19T06:54:56.121Z,408
2017-02-19T06:55:56.106Z,436
2017-02-19T06:56:56.466Z,472
2017-02-19T06:57:56.461Z,500
2017-02-19T06:58:56.438Z,532
2017-02-19T06:59:56.414Z,560
2017-02-19T07:00:56.568Z,604
2017-02-19T07:01:55.607Z,636
2017-02-19T07:02:55.941Z,660
2017-02-19T07:03:56.320Z,688
2017-02-19T07:04:56.304Z,724
2017-02-19T07:05:56.274Z,752
2017-02-19T07:06:55.847Z,772
2017-02-19T07:07:56.236Z,784
2017-02-19T07:08:56.449Z,788
2017-02-19T07:09:56.410Z,796
2017-02-19T07:10:55.805Z,812
2017-02-19T07:11:55.768Z,836
2017-02-19T07:12:55.740Z,876
2017-02-19T07:13:56.122Z,912
2017-02-19T07:14:55.701Z,936
2017-02-19T07:15:56.277Z,964
2017-02-19T07:16:56.141Z,996
2017-02-19T07:17:56.040Z,1024
2017-02-19T07:18:56.046Z,1052
2017-02-19T07:19:55.981Z,1060
2017-02-19T07:20:55.973Z,1068
2017-02-19T07:21:55.946Z,1072
2017-02-19T07:22:55.941Z,1112
2017-02-19T07:23:55.903Z,1196
2017-02-19T07:24:55.916Z,1320
2017-02-19T07:25:55.867Z,1460
2017-02-19T07:26:55.851Z,1576
2017-02-19T07:27:55.833Z,1660
2017-02-19T07:28:55.807Z,1708
2017-02-19T07:29:55.787Z,1748
2017-02-19T07:30:55.771Z,1800
2017-02-19T07:31:55.749Z,1860
2017-02-19T07:32:55.740Z,1912
2017-02-19T07:33:55.734Z,1968
2017-02-19T07:34:55.697Z,2020
2017-02-19T07:35:55.675Z,2076
2017-02-19T07:36:55.664Z,2128
2017-02-19T07:37:55.628Z,2180
2017-02-19T07:38:55.613Z,2268
2017-02-19T07:39:55.604Z,2352
2017-02-19T07:40:55.180Z,2448
2017-02-19T07:41:55.579Z,2596
2017-02-19T07:42:55.568Z,2772
2017-02-19T07:43:55.118Z,2932
2017-02-19T07:44:55.690Z,3052
2017-02-19T07:45:55.090Z,3164
2017-02-19T07:46:55.064Z,3276
2017-02-19T07:47:54.629Z,3436
2017-02-19T07:48:55.418Z,3568
2017-02-19T07:49:55.395Z,3636
2017-02-19T07:50:55.363Z,3664
2017-02-19T07:51:55.361Z,3692
2017-02-19T07:52:54.950Z,3720
2017-02-19T07:53:54.942Z,3704
2017-02-19T07:54:55.304Z,3652
2017-02-19T07:55:55.281Z,3624
2017-02-19T07:56:55.251Z,3580
2017-02-19T07:57:54.460Z,3532
2017-02-19T07:58:55.226Z,3492
2017-02-19T07:59:55.192Z,3496
2017-02-19T08:00:55.203Z,3612
2017-02-19T08:01:55.163Z,3800
2017-02-19T08:02:55.139Z,4028
2017-02-19T08:03:55.126Z,4072
2017-02-19T08:04:55.119Z,4188
2017-02-19T08:05:55.103Z,4356
2017-02-19T08:06:54.689Z,4544
2017-02-19T08:07:55.064Z,4588
2017-02-19T08:08:55.039Z,4680
2017-02-19T08:09:55.004Z,4740
2017-02-19T08:10:54.997Z,4776
2017-02-19T08:11:54.971Z,4720
2017-02-19T08:12:54.977Z,4700
2017-02-19T08:13:54.937Z,4720
2017-02-19T08:14:54.126Z,4712
2017-02-19T08:15:54.914Z,4776
2017-02-19T08:16:54.868Z,4780
2017-02-19T08:17:54.862Z,4816
2017-02-19T08:18:54.832Z,4880
2017-02-19T08:19:54.833Z,5044
2017-02-19T08:20:54.799Z,5312
2017-02-19T08:21:54.790Z,5704
2017-02-19T08:22:54.397Z,6108
2017-02-19T08:23:54.743Z,6344
2017-02-19T08:24:54.738Z,6336
2017-02-19T08:25:54.725Z,6388
2017-02-19T08:26:54.690Z,6396
2017-02-19T08:27:54.700Z,6340
2017-02-19T08:28:54.664Z,5984
2017-02-19T08:29:54.637Z,5556
2017-02-19T08:30:54.617Z,5140
2017-02-19T08:31:54.621Z,4808
2017-02-19T08:32:54.595Z,4620
2017-02-19T08:33:54.579Z,4372
2017-02-19T08:34:54.548Z,4000
2017-02-19T08:35:54.522Z,3588
2017-02-19T08:36:54.515Z,3184
2017-02-19T08:37:54.589Z,2796
2017-02-19T08:38:54.468Z,2468
2017-02-19T08:39:54.446Z,2244
2017-02-19T08:40:54.433Z,2132
2017-02-19T08:41:54.414Z,2136
2017-02-19T08:42:54.388Z,2252
2017-02-19T08:43:54.369Z,2440
2017-02-19T08:44:54.369Z,2604
2017-02-19T08:45:54.373Z,2664
2017-02-19T08:46:54.344Z,2632
2017-02-19T08:47:54.299Z,2580
2017-02-19T08:48:54.299Z,2560
2017-02-19T08:49:54.264Z,2592
2017-02-19T08:50:54.253Z,2684
2017-02-19T08:51:54.245Z,2832
2017-02-19T08:52:54.245Z,3024
2017-02-19T08:53:54.199Z,3224
2017-02-19T08:54:54.171Z,3396
2017-02-19T08:55:54.152Z,3528
2017-02-19T08:56:54.151Z,3568
2017-02-19T08:57:54.133Z,3496
2017-02-19T08:58:54.165Z,3452
2017-02-19T08:59:54.118Z,3548
2017-02-19T09:00:54.080Z,3752
2017-02-19T09:01:54.052Z,4036
2017-02-19T09:02:54.379Z,4264
2017-02-19T09:03:54.093Z,4332
2017-02-19T09:04:53.994Z,4380
2017-02-19T09:05:53.578Z,4460
2017-02-19T09:06:53.972Z,4524
2017-02-19T09:07:53.945Z,4548
2017-02-19T09:08:53.919Z,4584
2017-02-19T09:09:53.920Z,4600
2017-02-19T09:10:53.881Z,4624
2017-02-19T09:11:53.471Z,4644
2017-02-19T09:12:53.847Z,4580
2017-02-19T09:13:53.840Z,4424
2017-02-19T09:14:53.810Z,4268
2017-02-19T09:15:53.797Z,4156
2017-02-19T09:16:53.794Z,4144
2017-02-19T09:17:53.752Z,4184
2017-02-19T09:18:53.747Z,4200
2017-02-19T09:19:53.326Z,4224
2017-02-19T09:20:53.704Z,4288
2017-02-19T09:21:53.685Z,4348
2017-02-19T09:22:53.675Z,4420
2017-02-19T09:23:53.699Z,4476
2017-02-19T09:24:53.680Z,4364
2017-02-19T09:25:53.254Z,4000
2017-02-19T09:26:53.615Z,3600
2017-02-19T09:27:53.596Z,3616
2017-02-19T09:28:53.560Z,4188
2017-02-19T09:29:53.158Z,4812
2017-02-19T09:30:53.543Z,5052
2017-02-19T09:31:53.520Z,4816
2017-02-19T09:32:53.490Z,4348
2017-02-19T09:33:53.486Z,3876
2017-02-19T09:34:53.458Z,3504
2017-02-19T09:35:53.442Z,3244
2017-02-19T09:36:53.416Z,3048
2017-02-19T09:37:53.433Z,2980
2017-02-19T09:38:53.385Z,3104
2017-02-19T09:39:53.372Z,3204
2017-02-19T09:40:53.355Z,3108
2017-02-19T09:41:53.333Z,2916
2017-02-19T09:42:53.344Z,2752
2017-02-19T09:43:53.320Z,2776
2017-02-19T09:44:53.291Z,2932
2017-02-19T09:45:53.291Z,3024
2017-02-19T09:46:52.978Z,2736
2017-02-19T09:47:52.468Z,2372
2017-02-19T09:48:52.843Z,2388
2017-02-19T09:49:53.210Z,2968
2017-02-19T09:50:53.199Z,3736
2017-02-19T09:51:52.761Z,4276
2017-02-19T09:52:53.155Z,4580
2017-02-19T09:53:53.125Z,4760
2017-02-19T09:54:52.308Z,5064
2017-02-19T09:55:52.692Z,5452
2017-02-19T09:56:53.071Z,5516
2017-02-19T09:57:53.057Z,5036
2017-02-19T09:58:53.042Z,4164
2017-02-19T09:59:53.023Z,3148
2017-02-19T10:00:52.997Z,2548
2017-02-19T10:01:52.978Z,2824
2017-02-19T10:02:53.006Z,3624
2017-02-19T10:03:52.546Z,4372
2017-02-19T10:04:52.927Z,5196
2017-02-19T10:05:52.905Z,5988
2017-02-19T10:06:52.884Z,6920
2017-02-19T10:07:52.888Z,8124
2017-02-19T10:08:52.867Z,9404
2017-02-19T10:09:52.865Z,10580
2017-02-19T10:10:52.837Z,11216
2017-02-19T10:11:52.852Z,11028
2017-02-19T10:12:52.788Z,10204
2017-02-19T10:13:52.368Z,9144
2017-02-19T10:14:52.358Z,8928
2017-02-19T10:15:52.353Z,9144
2017-02-19T10:16:52.323Z,9044
2017-02-19T10:17:52.313Z,8928
2017-02-19T10:18:52.297Z,9656
2017-02-19T10:19:52.279Z,10784
2017-02-19T10:20:52.263Z,11816
2017-02-19T10:21:52.636Z,12224
2017-02-19T10:22:52.630Z,12992
2017-02-19T10:23:52.203Z,17184
2017-02-19T10:24:52.179Z,21792
2017-02-19T10:25:52.589Z,13956
2017-02-19T10:26:52.155Z,19232
2017-02-19T10:27:52.539Z,14976
2017-02-19T10:28:52.112Z,16960
2017-02-19T10:29:52.105Z,18976
2017-02-19T10:30:52.093Z,21280
2017-02-19T10:31:52.074Z,14856
2017-02-19T10:32:52.079Z,17856
2017-02-19T10:33:52.445Z,21312
2017-02-19T10:34:52.629Z,29184
2017-02-19T10:35:52.406Z,12420
2017-02-19T10:36:52.389Z,9484
2017-02-19T10:37:52.381Z,7740
2017-02-19T10:38:52.367Z,7428
2017-02-19T10:39:52.353Z,7756
2017-02-19T10:40:52.342Z,8612
2017-02-19T10:41:52.339Z,9860
2017-02-19T10:42:51.917Z,10412
2017-02-19T10:43:52.305Z,11568
2017-02-19T10:44:52.271Z,11420
2017-02-19T10:45:51.915Z,11848
2017-02-19T10:46:52.258Z,8560
2017-02-19T10:47:52.232Z,8572
2017-02-19T10:48:52.215Z,9248
2017-02-19T10:49:52.199Z,9212
2017-02-19T10:50:52.222Z,7728
2017-02-19T10:51:51.797Z,7604
2017-02-19T10:52:52.159Z,6916
2017-02-19T10:53:52.144Z,6396
2017-02-19T10:54:51.732Z,6372
2017-02-19T10:55:52.122Z,6348
2017-02-19T10:56:52.095Z,5556
2017-02-19T10:57:52.082Z,4484
2017-02-19T10:58:52.070Z,4012
2017-02-19T10:59:52.062Z,4076
2017-02-19T11:00:52.036Z,4420
2017-02-19T11:01:52.026Z,4476
2017-02-19T11:02:51.617Z,4264
2017-02-19T11:03:52.055Z,4036
2017-02-19T11:04:51.990Z,3632
2017-02-19T11:05:51.968Z,3140
2017-02-19T11:06:51.986Z,2784
2017-02-19T11:07:51.944Z,2788
2017-02-19T11:08:51.540Z,2972
2017-02-19T11:09:51.898Z,3012
2017-02-19T11:10:51.896Z,3200
2017-02-19T11:11:51.878Z,3248
2017-02-19T11:12:51.913Z,3344
2017-02-19T11:13:51.869Z,3376
2017-02-19T11:14:51.833Z,3008
2017-02-19T11:15:51.022Z,3100
2017-02-19T11:16:51.788Z,3440
2017-02-19T11:17:51.770Z,3552
2017-02-19T11:18:51.755Z,3476
2017-02-19T11:19:51.737Z,2996
2017-02-19T11:20:51.734Z,2684
2017-02-19T11:21:51.722Z,2932
2017-02-19T11:22:51.693Z,3332
2017-02-19T11:23:51.272Z,3908
2017-02-19T11:24:51.651Z,4312
2017-02-19T11:25:51.664Z,4020
2017-02-19T11:26:51.629Z,2840
2017-02-19T11:27:51.622Z,2004
2017-02-19T11:28:51.603Z,1604
2017-02-19T11:29:51.566Z,1432
2017-02-19T11:30:51.561Z,1340
2017-02-19T11:31:51.548Z,1348
2017-02-19T11:32:51.516Z,1432
2017-02-19T11:33:51.501Z,1412
2017-02-19T11:34:51.486Z,1368
2017-02-19T11:35:51.483Z,1360
2017-02-19T11:36:51.455Z,1528
2017-02-19T11:37:51.056Z,1828
2017-02-19T11:38:51.423Z,1836
2017-02-19T11:39:51.413Z,1700
2017-02-19T11:40:51.394Z,1664
2017-02-19T11:41:51.371Z,1656
2017-02-19T11:42:51.354Z,1808
2017-02-19T11:43:50.933Z,1760
2017-02-19T11:44:51.331Z,1748
2017-02-19T11:45:51.310Z,1852
2017-02-19T11:46:51.296Z,1904
2017-02-19T11:47:51.276Z,1924
2017-02-19T11:48:51.269Z,1844
2017-02-19T11:49:51.238Z,1728
2017-02-19T11:50:50.811Z,1452
2017-02-19T11:51:51.218Z,1324
2017-02-19T11:52:50.797Z,1284
2017-02-19T11:53:51.165Z,1524
2017-02-19T11:54:51.148Z,1640
2017-02-19T11:55:51.125Z,1496
2017-02-19T11:56:51.110Z,1528
2017-02-19T11:57:51.106Z,1500
2017-02-19T11:58:51.073Z,1312
2017-02-19T11:59:51.078Z,1292
2017-02-19T12:00:51.039Z,1340
2017-02-19T12:01:51.022Z,1436
2017-02-19T12:02:51.011Z,1460
2017-02-19T12:03:51.000Z,1616
2017-02-19T12:04:50.996Z,1668
2017-02-19T12:05:50.953Z,1596
2017-02-19T12:06:50.930Z,1596
2017-02-19T12:07:50.918Z,1564
2017-02-19T12:08:50.903Z,1400
2017-02-19T12:09:50.893Z,1300
2017-02-19T12:10:50.856Z,1256
2017-02-19T12:11:50.855Z,1212
2017-02-19T12:12:50.434Z,1208
2017-02-19T12:13:50.427Z,1180
2017-02-19T12:14:50.791Z,1160
2017-02-19T12:15:50.773Z,1100
2017-02-19T12:16:50.356Z,1044
2017-02-19T12:17:50.742Z,1100
2017-02-19T12:18:50.740Z,1132
2017-02-19T12:19:50.706Z,1224
2017-02-19T12:20:50.299Z,1324
2017-02-19T12:21:50.689Z,1356
2017-02-19T12:22:50.262Z,1408
2017-02-19T12:23:50.640Z,1396
2017-02-19T12:24:50.624Z,1312
2017-02-19T12:25:50.222Z,1240
2017-02-19T12:26:50.573Z,1216
2017-02-19T12:27:50.565Z,1228
2017-02-19T12:28:50.555Z,1208
2017-02-19T12:29:50.536Z,1212
2017-02-19T12:30:50.504Z,1240
2017-02-19T12:31:50.510Z,1244
2017-02-19T12:32:50.471Z,1260
2017-02-19T12:33:50.461Z,1260
2017-02-19T12:34:50.642Z,1240
2017-02-19T12:35:50.079Z,1224
2017-02-19T12:36:50.435Z,1212
2017-02-19T12:37:49.997Z,1164
2017-02-19T12:38:50.390Z,1100
2017-02-19T12:39:49.953Z,1052
2017-02-19T12:40:50.342Z,1076
2017-02-19T12:41:50.337Z,1160
2017-02-19T12:42:50.300Z,1256
2017-02-19T12:43:49.889Z,1376
2017-02-19T12:44:50.261Z,1388
2017-02-19T12:45:50.245Z,1392
2017-02-19T12:46:50.234Z,1440
2017-02-19T12:47:49.816Z,1540
2017-02-19T12:48:49.792Z,1464
2017-02-19T12:49:49.397Z,1356
2017-02-19T12:50:49.769Z,1432
2017-02-19T12:51:50.150Z,1624
2017-02-19T12:52:49.717Z,1672
2017-02-19T12:53:50.093Z,1632
2017-02-19T12:54:49.700Z,1724
2017-02-19T12:55:50.078Z,1964
2017-02-19T12:56:49.675Z,2004
2017-02-19T12:57:50.025Z,1996
2017-02-19T12:58:50.039Z,1920
2017-02-19T12:59:49.591Z,1924
2017-02-19T13:00:49.195Z,1912
2017-02-19T13:01:49.630Z,1856
2017-02-19T13:02:49.940Z,1724
2017-02-19T13:03:49.957Z,1828
2017-02-19T13:04:49.904Z,1784
2017-02-19T13:05:49.491Z,1968
2017-02-19T13:06:49.478Z,1932
2017-02-19T13:07:49.845Z,2128
2017-02-19T13:08:49.824Z,2216
2017-02-19T13:09:49.828Z,2348
2017-02-19T13:10:49.400Z,2340
2017-02-19T13:11:49.374Z,2280
2017-02-19T13:12:49.751Z,2420
2017-02-19T13:13:49.364Z,2472
2017-02-19T13:14:49.725Z,2680
2017-02-19T13:15:49.696Z,2240
2017-02-19T13:16:49.290Z,1840
2017-02-19T13:17:49.664Z,1952
2017-02-19T13:18:49.641Z,1996
2017-02-19T13:19:49.623Z,1856
2017-02-19T13:20:49.605Z,1840
2017-02-19T13:21:49.189Z,1860
2017-02-19T13:22:49.590Z,2108
2017-02-19T13:23:49.557Z,2136
2017-02-19T13:24:49.152Z,2036
2017-02-19T13:25:49.539Z,1620
2017-02-19T13:26:49.503Z,1608
2017-02-19T13:27:49.098Z,1656
2017-02-19T13:28:49.460Z,1568
2017-02-19T13:29:49.441Z,1640
2017-02-19T13:30:49.436Z,1392
2017-02-19T13:31:49.420Z,1320
2017-02-19T13:32:49.390Z,1628
2017-02-19T13:33:49.389Z,1688
2017-02-19T13:34:49.366Z,1504
2017-02-19T13:35:49.354Z,1388
2017-02-19T13:36:49.525Z,1424
2017-02-19T13:37:48.903Z,1336
2017-02-19T13:38:49.315Z,1452
2017-02-19T13:39:48.487Z,1496
2017-02-19T13:40:48.475Z,1616
2017-02-19T13:41:48.435Z,1656
2017-02-19T13:42:48.850Z,1744
2017-02-19T13:43:49.211Z,1820
2017-02-19T13:44:48.769Z,1968
2017-02-19T13:45:48.793Z,1608
2017-02-19T13:46:48.734Z,1524
2017-02-19T13:47:48.738Z,1572
2017-02-19T13:48:49.110Z,1588
2017-02-19T13:49:48.691Z,1760
2017-02-19T13:50:48.689Z,1644
2017-02-19T13:51:48.656Z,1668
2017-02-19T13:52:48.643Z,1516
2017-02-19T13:53:49.015Z,1436
2017-02-19T13:54:48.187Z,1260
2017-02-19T13:55:48.970Z,1300
2017-02-19T13:56:48.548Z,1212